ΕΜΥ, Εθνική Μετεωρολογική Υπηρεσία - Δελτία Καιρού, Προγνώσεις

ΑΕΡΟΝΑΥΤΙΛΙΑ

GREEK AIRPORTS CODES

LGSO 012120Z AUTO 24014KT //// // ////// 14/10 Q1009 RERA RMK 0.0MM=

EUROPEAN AIRPORTS CODES

LOWW 012120Z 15006KT CAVOK M01/M08 Q1017 NOSIG=